WetterOnline ( https://www.wetteronline.de )

Wetter aktuell Duisburg

Aktuelles Wetter: Essen (161m)

6-stündlich | Neueste Meldungen
Ortszeit Temperatur Wetter
Sa, 13.04. 2:00 15.3° C bedeckt
Fr, 12.04. 20:00 18.4° C bewölkt
Fr, 12.04. 14:00 17.5° C bedeckt
Fr, 12.04. 8:00 12.4° C Sprühregen
Fr, 12.04. 2:00 13.5° C bedeckt
Do, 11.04. 20:00 14.5° C bedeckt
Do, 11.04. 14:00 12.9° C bewölkt
Do, 11.04. 8:00 9.7° C bewölkt
Ortszeit Temperatur Wetter
Sa, 13.04. 4:30 14.2° C bedeckt
Sa, 13.04. 4:20 14.2° C bedeckt
Sa, 13.04. 4:10 14.2° C bedeckt
Sa, 13.04. 4:00 14.3° C bedeckt
Sa, 13.04. 3:50 14.3° C bedeckt
Sa, 13.04. 3:40 14.4° C bedeckt
Sa, 13.04. 3:30 14.6° C bedeckt
Sa, 13.04. 3:00 14.9° C bedeckt
Sa, 13.04. 2:30 14.8° C bedeckt
Sa, 13.04. 2:00 15.3° C bedeckt
Sa, 13.04. 1:30 15.8° C bedeckt
Ortszeit Relative Feuchte Sichtweite
Sa, 13.04. 2:00 80% 35 km
Fr, 12.04. 20:00 68% 40 km
Fr, 12.04. 14:00 74% 50 km
Fr, 12.04. 8:00 96% 8 km
Fr, 12.04. 2:00 83% 40 km
Do, 11.04. 20:00 76% 40 km
Do, 11.04. 14:00 78% 40 km
Do, 11.04. 8:00 62% 55 km
Ortszeit Relative Feuchte Sichtweite
Sa, 13.04. 4:30 84% 30 km
Sa, 13.04. 4:20 84% -
Sa, 13.04. 4:10 84% -
Sa, 13.04. 4:00 84% 30 km
Sa, 13.04. 3:50 84% -
Sa, 13.04. 3:40 83% -
Sa, 13.04. 3:30 82% 35 km
Sa, 13.04. 3:00 81% 35 km
Sa, 13.04. 2:30 82% 30 km
Sa, 13.04. 2:00 80% 35 km
Sa, 13.04. 1:30 78% 35 km
Ortszeit Niederschlagsmenge Niederschlagsart
Sa, 13.04. 2:00 0.0 l/m2 in 6 Std. -
Fr, 12.04. 20:00 0.1 l/m2 in 12 Std. -
Fr, 12.04. 14:00 0.1 l/m2 in 6 Std. Sprühregen
Fr, 12.04. 8:00 0.1 l/m2 in 12 Std. Sprühregen
Fr, 12.04. 2:00 0.0 l/m2 in 6 Std. -
Do, 11.04. 20:00 0.1 l/m2 in 12 Std. -
Do, 11.04. 14:00 0.1 l/m2 in 6 Std. Regen
Do, 11.04. 8:00 0.0 l/m2 in 12 Std. -
Ortszeit Niederschlagsmenge Niederschlagsart
Sa, 13.04. 4:30 0.0 l/m2 in 30 Min -
Sa, 13.04. 4:20 keine Meldung -
Sa, 13.04. 4:10 keine Meldung -
Sa, 13.04. 4:00 0.0 l/m2 in 1 Std. -
Sa, 13.04. 3:50 keine Meldung -
Sa, 13.04. 3:40 keine Meldung -
Sa, 13.04. 3:30 0.0 l/m2 in 30 Min -
Sa, 13.04. 3:00 0.0 l/m2 in 1 Std. -
Sa, 13.04. 2:30 0.0 l/m2 in 30 Min -
Sa, 13.04. 2:00 0.0 l/m2 in 1 Std. -
Sa, 13.04. 1:30 0.0 l/m2 in 30 Min -
Ortszeit Stärke Spitze Richtung
km/h Bft. km/h Grad Sektor
Sa, 13.04. 2:00 11 2 25 210° SW
Fr, 12.04. 20:00 15 3 35 220° SW
Fr, 12.04. 14:00 15 3 28 210° SW
Fr, 12.04. 8:00 14 3 25 220° SW
Fr, 12.04. 2:00 9 2 19 230° SW
Do, 11.04. 20:00 7 2 29 240° SW
Do, 11.04. 14:00 18 3 32 210° SW
Do, 11.04. 8:00 14 3 29 170° S
Ortszeit Stärke Spitze Richtung
km/h Bft. km/h Grad Sektor
Sa, 13.04. 4:30 14 3 25 210° SW
Sa, 13.04. 4:20 14 3 - 210° SW
Sa, 13.04. 4:10 13 3 - 210° SW
Sa, 13.04. 4:00 13 3 20 210° SW
Sa, 13.04. 3:50 13 3 - 210° SW
Sa, 13.04. 3:40 13 3 - 210° SW
Sa, 13.04. 3:30 11 2 22 210° SW
Sa, 13.04. 3:00 13 3 20 210° SW
Sa, 13.04. 2:30 11 2 22 210° SW
Sa, 13.04. 2:00 11 2 18 210° SW
Sa, 13.04. 1:30 11 2 18 220° SW
Ortszeit Untergrenze Bedeckung Gattung
total tief tief mittel hoch
Sa, 13.04. 2:00 6600 m 8/8 8/8 - - -
Fr, 12.04. 20:00 1470 m 7/8 6/8 - - -
Fr, 12.04. 14:00 690 m 8/8 8/8 - - -
Fr, 12.04. 8:00 150 m 8/8 8/8 - - -
Fr, 12.04. 2:00 660 m 8/8 8/8 - - -
Do, 11.04. 20:00 750 m 8/8 8/8 - - -
Do, 11.04. 14:00 570 m 7/8 7/8 - - -
Do, 11.04. 8:00 1020 m 8/8 7/8 - - -
Ortszeit Bedeckungsgrad in Achtel und Wolkenuntergrenze
Sa, 13.04. 4:30 8(5700m)
Sa, 13.04. 4:20 8(5700m)
Sa, 13.04. 4:10 8
Sa, 13.04. 4:00 8(6000m)
Sa, 13.04. 3:50 8(6000m)
Sa, 13.04. 3:40 8
Sa, 13.04. 3:30 8(6300m)
Sa, 13.04. 3:00 8(6300m)
Sa, 13.04. 2:30 8(6300m)
Sa, 13.04. 2:00 8(6600m)
Sa, 13.04. 1:30 8(6300m)
Ortszeit Luftdruck NN (hPa) Tendenz (hPa in 3 Std.)
Sa, 13.04. 2:00 1028 - 0,1
Fr, 12.04. 20:00 1028 - 1,1
Fr, 12.04. 14:00 1031 - 0,9
Fr, 12.04. 8:00 1032 + 0,1
Fr, 12.04. 2:00 1033 + 0,1
Do, 11.04. 20:00 1032 + 0,1
Do, 11.04. 14:00 1033 + 1,2
Do, 11.04. 8:00 1030 - 0,3
Ortszeit Luftdruck NN (hPa) Tendenz (hPa in 3 Std.)
Sa, 13.04. 4:30 1028 - 0,9
Sa, 13.04. 4:20 1028 keine Meldung
Sa, 13.04. 4:10 1028 keine Meldung
Sa, 13.04. 4:00 1028 - 0,7
Sa, 13.04. 3:50 1028 keine Meldung
Sa, 13.04. 3:40 1028 keine Meldung
Sa, 13.04. 3:30 1028 - 0,7
Sa, 13.04. 3:00 1028 - 0,4
Sa, 13.04. 2:30 1028 - 0,3
Sa, 13.04. 2:00 1028 - 0,1
Sa, 13.04. 1:30 1028 - 0,1
Ortszeit Schneehöhe (cm)
Sa, 13.04. 2:00 0
Fr, 12.04. 20:00 0
Fr, 12.04. 14:00 0
Fr, 12.04. 8:00 0
Fr, 12.04. 2:00 0
Do, 11.04. 20:00 0
Do, 11.04. 14:00 0
Do, 11.04. 8:00 0
Ortszeit Schneehöhe (cm)
Sa, 13.04. 4:30 0
Sa, 13.04. 4:20 0
Sa, 13.04. 4:10 -
Sa, 13.04. 4:00 0
Sa, 13.04. 3:50 0
Sa, 13.04. 3:40 -
Sa, 13.04. 3:30 0
Sa, 13.04. 3:00 0
Sa, 13.04. 2:30 0
Sa, 13.04. 2:00 0
Sa, 13.04. 1:30 0
Link zu dieser Seite / Seite empfehlen

Das Wetter in ...